ADDS TAF Data INFO

IDs: Format: Raw Decoded Include METARs

Data at: 0413 UTC 22 Sep 2014

Region: TOP
KATL 220344Z 2204/2306 24005KT P6SM FEW040 BKN070
  TEMPO 2204/2206 -SHRA BKN060
  FM220800 29005KT P6SM FEW025 BKN060
  FM221100 33008KT P6SM SCT045
  FM221600 34010G16KT P6SM FEW250
  FM222300 35009KT P6SM SKC


KBOS 220303Z 2203/2306 12006KT 6SM BR BKN015
  FM220700 29010G20KT 3SM BR SCT015 BKN060
  FM220900 26007KT P6SM SCT015 BKN100
  FM221200 26010KT P6SM SCT250
  FM221500 27012G24KT P6SM SCT250
  FM221800 27015G24KT P6SM BKN040
  FM230000 29013KT P6SM SCT250


KBWI 220408Z 2204/2306 29013G25KT P6SM BKN090 BKN110
  FM220800 30010G18KT P6SM BKN090
  FM221400 31013G23KT P6SM SCT050
  FM222300 32006KT P6SM SKC


KCLE 220252Z 2203/2306 32014G20KT P6SM VCSH SCT015 OVC030
  TEMPO 2203/2207 5SM -SHRA BKN015
  FM220700 33014KT P6SM VCSH BKN015 OVC025
  FM221800 33012KT P6SM BKN035
  FM230000 30006KT P6SM SCT040


KCLT 212325Z 2200/2224 23007KT P6SM BKN060
  FM220400 30005KT P6SM BKN050
  FM220900 34008KT P6SM SCT060
  FM221400 02008G14KT P6SM SKC
  FM222300 02004KT P6SM FEW250


KCVG 220402Z 2204/2306 33010KT P6SM SCT050
  FM221000 34010KT P6SM SCT050
  FM221600 35008KT P6SM SKC


KDCA 220407Z 2204/2224 32014G22KT P6SM BKN090 BKN100
  FM221400 33013G23KT P6SM FEW050
  FM222100 33012KT P6SM SKC


KDEN 220227Z 2202/2306 26006KT P6SM BKN060 OVC100
  TEMPO 2202/2206 -SHRA BKN050 OVC070
  FM220600 23008KT P6SM VCSH SCT050 BKN080
  FM220900 20012KT P6SM SCT080 BKN110
  FM221500 22010KT P6SM SCT060 BKN110
  PROB30 2215/2219 -SHRA BKN060
  FM221900 36007KT P6SM SCT070 BKN100
  PROB30 2219/2224 VRB15G30KT -TSRA BKN060CB
  FM230000 33008KT P6SM SCT060 BKN100


KDFW 220303Z 2203/2306 03010KT P6SM SCT060 SCT250
  FM221500 06010KT P6SM SCT250


KDTW 220213Z 2202/2306 33011G19KT P6SM OVC025
  FM221000 32008KT P6SM BKN030
  FM221700 30007KT P6SM SKC
  FM230000 26004KT P6SM SKC


KEWR 220241Z 2203/2306 25009KT P6SM SCT025 BKN150
  FM220600 29012KT P6SM SCT040 SCT150
  FM221200 30017G25KT P6SM SCT040
  FM230200 33011KT P6SM FEW040


KFLL 212324Z 2200/2224 VRB05KT P6SM VCTS SCT025CB BKN050
  FM220100 VRB03KT P6SM VCSH FEW025 SCT120 BKN250
  FM220200 VRB03KT P6SM FEW025 SCT250
  FM221500 13010KT P6SM VCTS SCT030CB BKN050


KIAD 220339Z 2204/2306 29011G20KT P6SM OVC090
  FM221400 33012G22KT P6SM SCT050
  FM222100 33012KT P6SM SKC
  FM222300 33007KT P6SM SKC


KIAH 220301Z 2203/2306 VRB03KT P6SM SCT250
  FM221700 02007KT P6SM FEW250
  FM222100 04008KT P6SM SCT100
  FM230300 04004KT P6SM SKC


KJFK 220241Z 2203/2306 24010KT P6SM SCT025 BKN150
  FM220600 29015KT P6SM SCT040 SCT150
  FM221200 30018G25KT P6SM SCT040
  FM230200 32014KT P6SM FEW040


KLAS 220250Z 2203/2224 15008KT P6SM FEW120
  FM220400 21008KT P6SM SKC
  FM221500 VRB05KT P6SM SKC


KLAX 220255Z 2203/2306 27011KT P6SM SKC
  FM220400 26007KT P6SM SCT015
  FM220600 VRB03KT P6SM OVC012
  FM221500 26005KT P6SM BKN017
  FM221800 25010KT P6SM SCT022
  FM230400 26008KT P6SM SCT012


KLGA 220241Z 2203/2224 25010KT P6SM SCT025 BKN150
  FM220600 29014KT P6SM SCT040 SCT150
  FM221200 30016G25KT P6SM SCT040


KMCO 220310Z 2203/2224 00000KT P6SM SCT060 BKN250
  FM221500 11005KT P6SM SCT025 BKN250
  FM221800 13006KT P6SM SCT035 SCT100 BKN250
  PROB30 2220/2223 3SM TSRA BKN025CB


KMDW 220306Z 2203/2224 35006KT P6SM FEW040
  FM220600 34004KT P6SM SKC
  FM221500 32008KT P6SM SKC
  FM222000 27007KT P6SM SKC


KMEM 220259Z 2203/2224 01006KT P6SM SKC
  FM221400 04011KT P6SM SKC


KMIA 220118Z 2201/2224 VRB05KT P6SM VCTS SCT020CB BKN045 OVC070
  TEMPO 2201/2202 VRB10G20KT 3SM TSRA SCT015 BKN025CB OVC040
  FM220200 VRB02KT P6SM FEW025 SCT250
  FM221600 13008KT P6SM VCTS SCT030CB BKN050


KMSP 220246Z 2203/2306 VRB03KT P6SM SKC
  FM221400 24006KT P6SM SKC
  FM230100 17005KT P6SM SKC


KORD 220306Z 2203/2306 01005KT P6SM FEW040
  FM220600 34004KT P6SM SKC
  FM221500 32008KT P6SM SKC
  FM222000 27007KT P6SM SKC


KPDX 220257Z 2203/2224 32005KT P6SM FEW050 BKN250
  FM221100 VRB03KT P6SM OVC012
  FM221700 24006KT P6SM BKN050
  FM222000 26005KT P6SM SCT050 SCT100


KPHL 220312Z 2203/2306 26008KT P6SM SCT045 BKN060
  TEMPO 2203/2204 26010G20KT -SHRA
  FM221300 32012G20KT P6SM FEW050
  FM222300 33011KT P6SM SKC


KPHX 220252Z 2203/2224 33005KT P6SM FEW080
  FM220600 VRB05KT P6SM FEW080
  FM220700 10005KT P6SM SKC
  FM221900 26005KT P6SM SKC


KPIT 220238Z 2203/2306 28010KT P6SM FEW035
  FM220400 30012KT P6SM BKN025
  FM220700 30010KT P6SM BKN015
  FM221300 31011KT P6SM BKN035


KSAN 220300Z 2203/2306 VRB04KT P6SM FEW015
  FM220800 VRB04KT P6SM OVC015
  FM221700 VRB04KT P6SM FEW015
  FM221900 28010KT P6SM SKC
  FM230300 VRB04KT P6SM FEW015


KSEA 220308Z 2203/2306 20010KT P6SM FEW200
  FM220800 20005KT 6SM BR OVC009
  FM221700 20005KT P6SM OVC015
  FM221900 24006KT P6SM SCT020 OVC035
  FM222100 23007KT P6SM SCT035 BKN100


KSFO 220253Z 2203/2306 27008KT P6SM OVC017
  FM220800 28006KT P6SM OVC013
  FM221800 27010KT P6SM SCT015
  FM222000 27015KT P6SM FEW015
  FM230400 27010KT P6SM FEW010


KSLC 220330Z 2204/2306 14006KT P6SM SCT060 OVC080
  FM220500 15007KT P6SM VCSH SCT050 BKN070
  FM222000 32006KT P6SM SCT070


KSTL 212320Z 2200/2306 32014G24KT P6SM FEW060
  FM220100 34005KT P6SM SKC
  FM221400 01005KT P6SM SKC
  FM230500 09005KT P6SM SKC


KTPA 220306Z 2203/2224 VRB03KT P6SM FEW020 SCT100 SCT250
  FM221200 VRB03KT P6SM VCSH SCT025 BKN040
  FM221500 19005KT P6SM VCSH SCT025 BKN035
  FM221800 22006KT P6SM VCTS BKN035CB



Page loaded:  04:13 UTC  |   09:13 PM Pacific  |   10:13 PM Mountain  |   11:13 PM Central  |   12:13 AM Eastern

 

ADVISORIES

FORECASTS

FORECASTS

OBSERVATIONS

USER TOOLS

ABOUT US